x

Shumagin Islands - 85nm South Of Sand Point, Ak (46075) Wave Buoy

4:50pm - Thu 18th Dec 2014 All times are UTC.

  • Sig Wave height 13.1ft
  • Peak Period 11s
  • Average Period 8s
  • Wind
    11mph, 16mph gusts
  • Sea Temp 44°f
  • Air Temp 40°f
  • Sea Pressure 990.8mb

More Historic Weather Station data

Upgrade to MSW Pro to gain access to the past 30 days of data for over 8000 Wavebouys and Weather Stations around the globe.

Join Pro

Comparision Forecast

View Surf forecast
   
Thu 12/18 4:50pm 13ft 11s 8s 11 16 mph 990.8mb 44f 40f
3:50pm 14ft 11s 8s 16 20 mph 990.9mb 44f 41f
2:50pm 14ft 11s 8s 18 22 mph 990.9mb 44f 41f
1:50pm 15ft 11s 8s 20 25 mph 991mb 44f 40f
12:50pm 14ft 10s 8s 25 31 mph 990.9mb 44f 41f
11:50am 14ft 10s 7s 27 31 mph 990.7mb 44f 40f
10:50am 14.5ft 11s 8s 27 34 mph 989.9mb 44f 41f
9:50am 15ft 11s 8s 27 34 mph 989.5mb 44f 41f
8:50am 17ft 11s 8s 25 29 mph 988.9mb 44f 41f
7:50am 14ft 11s 7s 25 31 mph 988.4mb 44f 41f
6:50am 15ft 11s 8s 27 31 mph 987.9mb 44f 41f
5:50am 15ft 11s 7s 25 31 mph 987.2mb 44f 40f
4:50am 14.5ft 11s 7s 27 34 mph 986.5mb 44f 40f
3:50am 15ft 11s 7s 29 36 mph 985.6mb 44f 40f
2:50am 14.5ft 11s 7s 29 36 mph 984.9mb 44f 40f
1:50am 15ft 11s 7s 31 38 mph 983.9mb 44f 41f
12:50am 15ft 11s 7s 29 34 mph 983.5mb 44f 40f
Wed 12/17 11:50pm 13.5ft 9s 6s 31 40 mph 982.8mb 44f 40f
10:50pm 14.5ft 9s 7s 34 40 mph 982.8mb 44f 39f
9:50pm 13ft 9s 6s 31 38 mph 982.9mb 44f 39f
8:50pm 12ft 9s 6s 31 38 mph 983.2mb 44f 39f
7:50pm 11.5ft 8s 6s 36 47 mph 983.4mb 44f 39f
6:50pm 10.5ft 7s 6s 34 43 mph 983.3mb 44f 39f
5:50pm 10ft 7s 6s 31 38 mph 983.3mb 44f 42f
4:50pm 10ft 6s 5s 29 36 mph 984mb 44f 42f
3:50pm 9ft 12s 5s 29 36 mph 984.7mb 44f 42f
2:50pm 9ft 12s 6s 29 36 mph 985.9mb 44f 41f
1:50pm 8ft 12s 5s 27 36 mph 987.1mb 44f 40f
12:50pm 9ft 11s 6s 25 29 mph 988mb 44f 41f
11:50am 9ft 13s 7s 25 34 mph 988.8mb 44f 40f
10:50am 9ft 12s 7s 25 29 mph 989.9mb 44f 40f
9:50am 8ft 13s 7s 22 27 mph 990.9mb 44f 41f
8:50am 8.5ft 13s 8s 18 25 mph 991.6mb 44f 40f
7:50am 8ft 13s 8s 16 22 mph 992mb 44f 40f
6:50am 9ft 13s 8s 16 20 mph 992.8mb 44f 40f
5:50am 9ft 14s 8s 18 25 mph 993.1mb 44f 40f
4:50am 10ft 13s 8s 11 13 mph 993.3mb 44f 40f
3:50am 10ft 13s 8s 9 11 mph 993.4mb 44f 40f
2:50am 10ft 13s 8s 11 16 mph 993.9mb 44f 41f
1:50am 10ft 13s 8s 7 11 mph 993.1mb 44f 40f
12:50am 10.5ft 12s 8s 13 16 mph 993.3mb 44f 41f
Tue 12/16 11:50pm 9.5ft 14s 8s 13 18 mph 993.4mb 44f 42f
10:50pm 10ft 13s 8s 13 18 mph 993.3mb 44f 41f
9:50pm 10ft 13s 8s 11 16 mph 992.9mb 44f 41f
8:50pm 9ft 13s 8s 16 18 mph 992.6mb 44f 40f
7:50pm 10ft 13s 8s 18 22 mph 992.2mb 44f 41f
6:50pm 9.5ft 13s 8s 18 22 mph 991.4mb 44f 40f
5:50pm 9.5ft 13s 8s 18 22 mph 990.5mb 44f 40f
4:50pm 10ft 13s 7s 20 27 mph 989.7mb 44f 39f
3:50pm 10.5ft 14s 8s 16 18 mph 989.1mb 44f 40f
2:50pm 10.5ft 12s 8s 9 22 mph 989.3mb 44f 38f
1:50pm 12ft 12s 8s 18 22 mph 988.9mb 44f 39f
12:50pm 14ft 14s 8s 25 31 mph 988.6mb 44f 38f
11:50am 13.5ft 14s 8s 18 22 mph 988.6mb 44f 41f
10:50am 15ft 13s 9s 20 27 mph 988.6mb 44f 42f
9:50am 14ft 13s 9s 22 29 mph 988.3mb 44f 41f
8:50am 13.5ft 13s 8s 22 29 mph 987.7mb 44f 42f
7:50am 14ft 14s 8s 22 29 mph 987.4mb 44f 41f
6:50am 14ft 11s 8s 22 27 mph 987mb 44f 42f
5:50am 13ft 14s 8s 22 27 mph 986.5mb 44f 41f
4:50am 15ft 13s 8s 25 31 mph 985.9mb 44f 41f
3:50am 14.5ft 11s 8s 27 31 mph 985.4mb 44f 41f
2:50am 15.5ft 12s 8s 27 31 mph 985.1mb 44f 42f
1:50am 17ft 13s 8s 27 34 mph 984.8mb 44f 42f
12:50am 17.5ft 11s 8s 29 36 mph 984.6mb 44f 42f
Mon 12/15 11:50pm 19ft 14s 8s 27 36 mph 984.6mb 44f 42f
10:50pm 20ft 12s 9s 31 40 mph 984.4mb 44f 42f
9:50pm 22.5ft 13s 9s 29 36 mph 984.2mb 44f 42f
8:50pm 21.5ft 12s 9s 34 40 mph 983.9mb 44f 42f
7:50pm 25ft 14s 10s 34 45 mph 983.3mb 44f 42f
6:50pm 27ft 14s 10s 36 45 mph 982.7mb 44f 42f
5:50pm 26ft 14s 10s 34 47 mph 982.1mb 44f 41f
4:50pm 28ft 12s 10s 36 47 mph 981.5mb 44f 41f
3:50pm  -   -   -  38 49 mph 980.8mb 44f 41f
2:50pm  -   -   -  36 45 mph 980.5mb 44f 41f
1:50pm 26ft 14s 10s 38 49 mph 979.6mb 44f 41f
12:50pm 29.5ft 14s 10s 43 56 mph 978.7mb 44f 41f
11:50am 28ft 14s 10s 43 51 mph 978.2mb 44f 41f
10:50am 24.5ft 12s 9s 40 51 mph 978mb 45f 41f
9:50am 25.5ft 12s 9s 43 56 mph 977.5mb 45f 41f
8:50am 24.5ft 13s 10s 43 54 mph 977.1mb 44f 41f
7:50am 23ft 14s 9s 36 47 mph 977.5mb 44f 41f
6:50am 23.5ft 13s 9s 36 49 mph 978.1mb 44f 38f
5:50am 21.5ft 13s 9s 36 45 mph 977.9mb 44f 41f
4:50am  -   -   -  31 40 mph 978mb 44f 42f
3:50am 21.5ft 13s 9s 31 38 mph 978mb 44f 42f
2:50am 22.5ft 14s 9s 31 38 mph 978mb 44f 42f
1:50am 20.5ft 11s 9s 31 38 mph 977.6mb 44f 42f
12:50am 26ft 13s 10s 31 40 mph 977.3mb 44f 43f
Sun 12/14 11:50pm 24.5ft 14s 10s 31 40 mph 977mb 44f 43f
10:50pm 22.5ft 13s 9s 29 38 mph 976.9mb 44f 43f
9:50pm 19.5ft 13s 9s 27 36 mph 976.7mb 44f 42f
8:50pm 16.5ft 12s 8s 31 43 mph 975.9mb 44f 43f
7:50pm 16ft 13s 8s 34 45 mph 975mb 44f 43f
6:50pm 15ft 11s 8s 31 40 mph 974.4mb 45f 43f